sensor_id;sensor_type;location;lat;lon;timestamp;P1;durP1;ratioP1;P2;durP2;ratioP2
17947;SDS011;9099;47.958;11.366;2024-03-17T00:00:48;1.75;;;1.65;;
17947;SDS011;9099;47.958;11.366;2024-03-17T00:03:15;2.03;;;1.92;;
17947;SDS011;9099;47.958;11.366;2024-03-17T00:05:42;2.67;;;2.47;;
17947;SDS011;9099;47.958;11.366;2024-03-17T00:08:09;1.92;;;1.83;;
17947;SDS011;9099;47.958;11.366;2024-03-17T00:10:35;2.50;;;2.30;;
17947;SDS011;9099;47.958;11.366;2024-03-17T00:13:02;2.30;;;2.20;;
17947;SDS011;9099;47.958;11.366;2024-03-17T00:15:28;2.10;;;2.00;;
17947;SDS011;9099;47.958;11.366;2024-03-17T00:17:55;2.33;;;2.13;;
17947;SDS011;9099;47.958;11.366;2024-03-17T00:20:21;2.22;;;2.13;;
17947;SDS011;9099;47.958;11.366;2024-03-17T00:22:51;2.25;;;2.15;;
17947;SDS011;9099;47.958;11.366;2024-03-17T00:25:16;2.17;;;2.08;;
17947;SDS011;9099;47.958;11.366;2024-03-17T00:27:43;1.83;;;1.73;;
17947;SDS011;9099;47.958;11.366;2024-03-17T00:30:10;2.50;;;2.30;;
17947;SDS011;9099;47.958;11.366;2024-03-17T00:32:38;2.53;;;2.33;;
17947;SDS011;9099;47.958;11.366;2024-03-17T00:35:05;2.65;;;2.47;;
17947;SDS011;9099;47.958;11.366;2024-03-17T00:37:33;2.53;;;2.42;;
17947;SDS011;9099;47.958;11.366;2024-03-17T00:40:00;2.10;;;2.00;;
17947;SDS011;9099;47.958;11.366;2024-03-17T00:42:28;2.50;;;2.30;;
17947;SDS011;9099;47.958;11.366;2024-03-17T00:44:55;2.25;;;2.15;;
17947;SDS011;9099;47.958;11.366;2024-03-17T00:47:22;2.40;;;2.30;;
17947;SDS011;9099;47.958;11.366;2024-03-17T00:49:47;2.50;;;2.30;;
17947;SDS011;9099;47.958;11.366;2024-03-17T00:52:15;2.55;;;2.35;;
17947;SDS011;9099;47.958;11.366;2024-03-17T00:54:41;2.42;;;2.30;;
17947;SDS011;9099;47.958;11.366;2024-03-17T00:57:09;2.22;;;2.13;;
17947;SDS011;9099;47.958;11.366;2024-03-17T00:59:35;3.83;;;2.20;;
17947;SDS011;9099;47.958;11.366;2024-03-17T01:02:02;2.58;;;2.38;;
17947;SDS011;9099;47.958;11.366;2024-03-17T01:04:28;2.35;;;2.22;;
17947;SDS011;9099;47.958;11.366;2024-03-17T01:06:55;2.35;;;2.25;;
17947;SDS011;9099;47.958;11.366;2024-03-17T01:09:21;2.80;;;2.60;;
17947;SDS011;9099;47.958;11.366;2024-03-17T01:11:48;2.50;;;2.40;;
17947;SDS011;9099;47.958;11.366;2024-03-17T01:14:15;2.83;;;2.63;;
17947;SDS011;9099;47.958;11.366;2024-03-17T01:16:42;2.70;;;2.50;;
17947;SDS011;9099;47.958;11.366;2024-03-17T01:19:08;2.25;;;2.15;;
17947;SDS011;9099;47.958;11.366;2024-03-17T01:21:35;2.47;;;2.28;;
17947;SDS011;9099;47.958;11.366;2024-03-17T01:24:01;2.53;;;2.38;;
17947;SDS011;9099;47.958;11.366;2024-03-17T01:26:28;2.35;;;2.25;;
17947;SDS011;9099;47.958;11.366;2024-03-17T01:28:54;2.40;;;2.20;;
17947;SDS011;9099;47.958;11.366;2024-03-17T01:31:22;2.67;;;2.47;;
17947;SDS011;9099;47.958;11.366;2024-03-17T01:33:50;2.50;;;2.40;;
17947;SDS011;9099;47.958;11.366;2024-03-17T01:36:15;2.40;;;2.20;;
17947;SDS011;9099;47.958;11.366;2024-03-17T01:38:42;2.22;;;2.03;;
17947;SDS011;9099;47.958;11.366;2024-03-17T01:41:08;2.35;;;2.15;;
17947;SDS011;9099;47.958;11.366;2024-03-17T01:43:35;2.53;;;2.40;;
17947;SDS011;9099;47.958;11.366;2024-03-17T01:46:01;2.20;;;2.10;;
17947;SDS011;9099;47.958;11.366;2024-03-17T01:48:30;2.33;;;2.22;;
17947;SDS011;9099;47.958;11.366;2024-03-17T01:50:56;2.40;;;2.30;;
17947;SDS011;9099;47.958;11.366;2024-03-17T01:53:24;2.22;;;2.03;;
17947;SDS011;9099;47.958;11.366;2024-03-17T01:55:52;2.25;;;1.92;;
17947;SDS011;9099;47.958;11.366;2024-03-17T01:58:22;2.40;;;2.30;;
17947;SDS011;9099;47.958;11.366;2024-03-17T02:00:50;2.58;;;2.38;;
17947;SDS011;9099;47.958;11.366;2024-03-17T02:03:17;2.30;;;2.20;;
17947;SDS011;9099;47.958;11.366;2024-03-17T02:05:46;2.08;;;1.98;;
17947;SDS011;9099;47.958;11.366;2024-03-17T02:08:12;2.35;;;2.25;;
17947;SDS011;9099;47.958;11.366;2024-03-17T02:10:39;2.10;;;2.00;;
17947;SDS011;9099;47.958;11.366;2024-03-17T02:13:05;2.30;;;2.10;;
17947;SDS011;9099;47.958;11.366;2024-03-17T02:15:33;1.92;;;1.83;;
17947;SDS011;9099;47.958;11.366;2024-03-17T02:17:59;2.22;;;2.13;;
17947;SDS011;9099;47.958;11.366;2024-03-17T02:20:25;2.17;;;2.08;;
17947;SDS011;9099;47.958;11.366;2024-03-17T02:23:08;3.00;;;2.35;;
17947;SDS011;9099;47.958;11.366;2024-03-17T02:25:34;2.60;;;2.40;;
17947;SDS011;9099;47.958;11.366;2024-03-17T02:28:00;2.65;;;2.45;;
17947;SDS011;9099;47.958;11.366;2024-03-17T02:30:27;2.33;;;2.22;;
17947;SDS011;9099;47.958;11.366;2024-03-17T02:32:55;3.80;;;2.97;;
17947;SDS011;9099;47.958;11.366;2024-03-17T02:35:21;2.70;;;2.50;;
17947;SDS011;9099;47.958;11.366;2024-03-17T02:37:48;6.13;;;3.22;;
17947;SDS011;9099;47.958;11.366;2024-03-17T02:40:15;12.57;;;3.00;;
17947;SDS011;9099;47.958;11.366;2024-03-17T02:42:43;5.93;;;3.20;;
17947;SDS011;9099;47.958;11.366;2024-03-17T02:45:10;2.95;;;2.75;;
17947;SDS011;9099;47.958;11.366;2024-03-17T02:47:38;3.25;;;2.80;;
17947;SDS011;9099;47.958;11.366;2024-03-17T02:50:05;3.63;;;3.33;;
17947;SDS011;9099;47.958;11.366;2024-03-17T02:52:34;4.65;;;3.40;;
17947;SDS011;9099;47.958;11.366;2024-03-17T02:55:00;2.92;;;2.65;;
17947;SDS011;9099;47.958;11.366;2024-03-17T02:57:29;5.85;;;3.28;;
17947;SDS011;9099;47.958;11.366;2024-03-17T02:59:57;2.80;;;2.60;;
17947;SDS011;9099;47.958;11.366;2024-03-17T03:02:24;2.80;;;2.60;;
17947;SDS011;9099;47.958;11.366;2024-03-17T03:04:51;11.73;;;3.20;;
17947;SDS011;9099;47.958;11.366;2024-03-17T03:07:18;9.80;;;3.00;;
17947;SDS011;9099;47.958;11.366;2024-03-17T03:09:44;10.52;;;3.00;;
17947;SDS011;9099;47.958;11.366;2024-03-17T03:12:12;9.95;;;3.53;;
17947;SDS011;9099;47.958;11.366;2024-03-17T03:14:40;15.38;;;3.38;;
17947;SDS011;9099;47.958;11.366;2024-03-17T03:17:07;14.35;;;3.72;;
17947;SDS011;9099;47.958;11.366;2024-03-17T03:19:34;3.90;;;3.15;;
17947;SDS011;9099;47.958;11.366;2024-03-17T03:22:01;3.08;;;2.88;;
17947;SDS011;9099;47.958;11.366;2024-03-17T03:24:28;2.70;;;2.50;;
17947;SDS011;9099;47.958;11.366;2024-03-17T03:26:55;2.20;;;2.10;;
17947;SDS011;9099;47.958;11.366;2024-03-17T03:29:22;2.92;;;2.72;;
17947;SDS011;9099;47.958;11.366;2024-03-17T03:31:50;2.78;;;2.60;;
17947;SDS011;9099;47.958;11.366;2024-03-17T03:34:17;2.70;;;2.50;;
17947;SDS011;9099;47.958;11.366;2024-03-17T03:36:44;2.53;;;2.42;;
17947;SDS011;9099;47.958;11.366;2024-03-17T03:39:11;8.32;;;2.75;;
17947;SDS011;9099;47.958;11.366;2024-03-17T03:41:39;3.78;;;2.30;;
17947;SDS011;9099;47.958;11.366;2024-03-17T03:44:06;5.97;;;2.10;;
17947;SDS011;9099;47.958;11.366;2024-03-17T03:46:35;2.38;;;2.15;;
17947;SDS011;9099;47.958;11.366;2024-03-17T03:49:03;5.95;;;2.80;;
17947;SDS011;9099;47.958;11.366;2024-03-17T03:51:30;7.63;;;2.45;;
17947;SDS011;9099;47.958;11.366;2024-03-17T03:53:57;4.63;;;2.42;;
17947;SDS011;9099;47.958;11.366;2024-03-17T03:56:24;13.00;;;2.80;;
17947;SDS011;9099;47.958;11.366;2024-03-17T03:58:51;3.78;;;2.42;;
17947;SDS011;9099;47.958;11.366;2024-03-17T04:01:17;4.82;;;2.70;;
17947;SDS011;9099;47.958;11.366;2024-03-17T04:03:47;34.53;;;4.30;;
17947;SDS011;9099;47.958;11.366;2024-03-17T04:06:16;5.95;;;3.20;;
17947;SDS011;9099;47.958;11.366;2024-03-17T04:08:42;6.65;;;3.10;;
17947;SDS011;9099;47.958;11.366;2024-03-17T04:11:09;9.63;;;3.40;;
17947;SDS011;9099;47.958;11.366;2024-03-17T04:13:36;14.85;;;3.72;;
17947;SDS011;9099;47.958;11.366;2024-03-17T04:16:05;3.83;;;2.95;;
17947;SDS011;9099;47.958;11.366;2024-03-17T04:18:33;2.90;;;2.70;;
17947;SDS011;9099;47.958;11.366;2024-03-17T04:21:01;2.90;;;2.70;;
17947;SDS011;9099;47.958;11.366;2024-03-17T04:23:31;3.13;;;2.88;;
17947;SDS011;9099;47.958;11.366;2024-03-17T04:25:58;3.03;;;2.80;;
17947;SDS011;9099;47.958;11.366;2024-03-17T04:28:25;5.28;;;2.97;;
17947;SDS011;9099;47.958;11.366;2024-03-17T04:30:53;2.65;;;2.47;;
17947;SDS011;9099;47.958;11.366;2024-03-17T04:33:27;3.53;;;2.97;;
17947;SDS011;9099;47.958;11.366;2024-03-17T04:35:53;3.55;;;2.47;;
17947;SDS011;9099;47.958;11.366;2024-03-17T04:38:20;3.20;;;3.00;;
17947;SDS011;9099;47.958;11.366;2024-03-17T04:40:49;2.83;;;2.63;;
17947;SDS011;9099;47.958;11.366;2024-03-17T04:43:16;9.23;;;3.50;;
17947;SDS011;9099;47.958;11.366;2024-03-17T04:45:46;3.97;;;3.10;;
17947;SDS011;9099;47.958;11.366;2024-03-17T04:48:14;4.50;;;3.22;;
17947;SDS011;9099;47.958;11.366;2024-03-17T04:50:41;3.10;;;2.90;;
17947;SDS011;9099;47.958;11.366;2024-03-17T04:53:08;3.40;;;3.10;;
17947;SDS011;9099;47.958;11.366;2024-03-17T04:55:35;3.60;;;3.30;;
17947;SDS011;9099;47.958;11.366;2024-03-17T04:58:03;2.92;;;2.72;;
17947;SDS011;9099;47.958;11.366;2024-03-17T05:00:30;3.03;;;2.83;;
17947;SDS011;9099;47.958;11.366;2024-03-17T05:02:57;4.35;;;2.50;;
17947;SDS011;9099;47.958;11.366;2024-03-17T05:05:23;2.20;;;2.10;;
17947;SDS011;9099;47.958;11.366;2024-03-17T05:07:50;4.45;;;2.15;;
17947;SDS011;9099;47.958;11.366;2024-03-17T05:10:17;1.88;;;1.77;;
17947;SDS011;9099;47.958;11.366;2024-03-17T05:12:44;4.13;;;2.13;;
17947;SDS011;9099;47.958;11.366;2024-03-17T05:15:14;1.85;;;1.75;;
17947;SDS011;9099;47.958;11.366;2024-03-17T05:17:41;2.30;;;2.17;;
17947;SDS011;9099;47.958;11.366;2024-03-17T05:20:08;4.28;;;1.73;;
17947;SDS011;9099;47.958;11.366;2024-03-17T05:22:35;2.03;;;1.92;;
17947;SDS011;9099;47.958;11.366;2024-03-17T05:25:03;3.90;;;2.05;;
17947;SDS011;9099;47.958;11.366;2024-03-17T05:27:31;2.10;;;2.00;;
17947;SDS011;9099;47.958;11.366;2024-03-17T05:29:58;2.10;;;2.00;;
17947;SDS011;9099;47.958;11.366;2024-03-17T05:32:27;2.05;;;1.95;;
17947;SDS011;9099;47.958;11.366;2024-03-17T05:34:54;2.10;;;2.00;;
17947;SDS011;9099;47.958;11.366;2024-03-17T05:37:21;2.25;;;2.15;;
17947;SDS011;9099;47.958;11.366;2024-03-17T05:39:48;2.25;;;2.15;;
17947;SDS011;9099;47.958;11.366;2024-03-17T05:42:15;2.30;;;2.20;;
17947;SDS011;9099;47.958;11.366;2024-03-17T05:44:42;2.20;;;2.10;;
17947;SDS011;9099;47.958;11.366;2024-03-17T05:47:16;10.38;;;2.63;;
17947;SDS011;9099;47.958;11.366;2024-03-17T05:49:45;2.33;;;2.13;;
17947;SDS011;9099;47.958;11.366;2024-03-17T05:52:11;7.88;;;2.33;;
17947;SDS011;9099;47.958;11.366;2024-03-17T05:54:38;2.45;;;1.98;;
17947;SDS011;9099;47.958;11.366;2024-03-17T05:57:05;3.10;;;2.15;;
17947;SDS011;9099;47.958;11.366;2024-03-17T05:59:34;3.88;;;2.42;;
17947;SDS011;9099;47.958;11.366;2024-03-17T06:02:01;7.20;;;2.95;;
17947;SDS011;9099;47.958;11.366;2024-03-17T06:04:28;2.38;;;2.28;;
17947;SDS011;9099;47.958;11.366;2024-03-17T06:06:56;2.80;;;2.60;;
17947;SDS011;9099;47.958;11.366;2024-03-17T06:09:23;2.50;;;2.30;;
17947;SDS011;9099;47.958;11.366;2024-03-17T06:11:50;13.98;;;3.15;;
17947;SDS011;9099;47.958;11.366;2024-03-17T06:14:17;2.20;;;2.10;;
17947;SDS011;9099;47.958;11.366;2024-03-17T06:16:44;2.22;;;2.03;;
17947;SDS011;9099;47.958;11.366;2024-03-17T06:19:12;6.35;;;2.28;;
17947;SDS011;9099;47.958;11.366;2024-03-17T06:21:39;10.68;;;2.35;;
17947;SDS011;9099;47.958;11.366;2024-03-17T06:24:07;2.28;;;1.70;;
17947;SDS011;9099;47.958;11.366;2024-03-17T06:26:34;6.65;;;2.22;;
17947;SDS011;9099;47.958;11.366;2024-03-17T06:29:01;1.60;;;1.55;;
17947;SDS011;9099;47.958;11.366;2024-03-17T06:31:28;1.75;;;1.30;;
17947;SDS011;9099;47.958;11.366;2024-03-17T06:33:56;1.42;;;1.10;;
17947;SDS011;9099;47.958;11.366;2024-03-17T06:36:23;1.50;;;1.50;;
17947;SDS011;9099;47.958;11.366;2024-03-17T06:38:49;1.27;;;1.27;;
17947;SDS011;9099;47.958;11.366;2024-03-17T06:41:17;0.98;;;0.98;;
17947;SDS011;9099;47.958;11.366;2024-03-17T06:43:44;1.23;;;1.23;;
17947;SDS011;9099;47.958;11.366;2024-03-17T06:46:11;1.25;;;1.25;;
17947;SDS011;9099;47.958;11.366;2024-03-17T06:48:38;0.95;;;0.95;;
17947;SDS011;9099;47.958;11.366;2024-03-17T06:51:05;1.10;;;1.10;;
17947;SDS011;9099;47.958;11.366;2024-03-17T06:53:31;1.10;;;1.10;;
17947;SDS011;9099;47.958;11.366;2024-03-17T06:55:59;1.30;;;1.30;;
17947;SDS011;9099;47.958;11.366;2024-03-17T06:58:27;1.40;;;1.40;;
17947;SDS011;9099;47.958;11.366;2024-03-17T07:00:55;1.20;;;1.20;;
17947;SDS011;9099;47.958;11.366;2024-03-17T07:03:24;1.33;;;1.23;;
17947;SDS011;9099;47.958;11.366;2024-03-17T07:05:52;1.35;;;1.30;;
17947;SDS011;9099;47.958;11.366;2024-03-17T07:08:19;1.42;;;1.42;;
17947;SDS011;9099;47.958;11.366;2024-03-17T07:10:56;1.60;;;1.50;;
17947;SDS011;9099;47.958;11.366;2024-03-17T07:13:24;1.30;;;1.30;;
17947;SDS011;9099;47.958;11.366;2024-03-17T07:15:53;1.33;;;1.33;;
17947;SDS011;9099;47.958;11.366;2024-03-17T07:18:19;1.30;;;1.20;;
17947;SDS011;9099;47.958;11.366;2024-03-17T07:20:46;1.30;;;1.20;;
17947;SDS011;9099;47.958;11.366;2024-03-17T07:23:13;1.30;;;1.20;;
17947;SDS011;9099;47.958;11.366;2024-03-17T07:25:41;1.23;;;1.20;;
17947;SDS011;9099;47.958;11.366;2024-03-17T07:28:08;1.00;;;1.00;;
17947;SDS011;9099;47.958;11.366;2024-03-17T07:30:35;1.30;;;1.20;;
17947;SDS011;9099;47.958;11.366;2024-03-17T07:33:04;1.20;;;1.20;;
17947;SDS011;9099;47.958;11.366;2024-03-17T07:35:30;1.00;;;1.00;;
17947;SDS011;9099;47.958;11.366;2024-03-17T07:37:57;0.70;;;0.70;;
17947;SDS011;9099;47.958;11.366;2024-03-17T07:40:24;0.90;;;0.90;;
17947;SDS011;9099;47.958;11.366;2024-03-17T07:42:51;1.08;;;1.08;;
17947;SDS011;9099;47.958;11.366;2024-03-17T07:45:18;0.90;;;0.90;;
17947;SDS011;9099;47.958;11.366;2024-03-17T07:47:45;0.98;;;0.98;;
17947;SDS011;9099;47.958;11.366;2024-03-17T07:50:13;0.80;;;0.80;;
17947;SDS011;9099;47.958;11.366;2024-03-17T07:52:40;1.10;;;1.10;;
17947;SDS011;9099;47.958;11.366;2024-03-17T07:55:07;1.17;;;1.17;;
17947;SDS011;9099;47.958;11.366;2024-03-17T07:57:34;1.25;;;1.23;;
17947;SDS011;9099;47.958;11.366;2024-03-17T08:00:01;1.20;;;1.20;;
17947;SDS011;9099;47.958;11.366;2024-03-17T08:02:29;1.20;;;1.20;;
17947;SDS011;9099;47.958;11.366;2024-03-17T08:04:56;1.30;;;1.20;;
17947;SDS011;9099;47.958;11.366;2024-03-17T08:07:24;2.80;;;1.40;;
17947;SDS011;9099;47.958;11.366;2024-03-17T08:09:51;1.48;;;1.38;;
17947;SDS011;9099;47.958;11.366;2024-03-17T08:12:18;1.83;;;1.27;;
17947;SDS011;9099;47.958;11.366;2024-03-17T08:14:45;1.50;;;1.40;;
17947;SDS011;9099;47.958;11.366;2024-03-17T08:17:11;1.50;;;1.40;;
17947;SDS011;9099;47.958;11.366;2024-03-17T08:19:38;1.20;;;1.20;;
17947;SDS011;9099;47.958;11.366;2024-03-17T08:22:06;1.02;;;1.02;;
17947;SDS011;9099;47.958;11.366;2024-03-17T08:24:34;1.40;;;1.30;;
17947;SDS011;9099;47.958;11.366;2024-03-17T08:27:01;1.40;;;1.30;;
17947;SDS011;9099;47.958;11.366;2024-03-17T08:29:28;1.30;;;1.30;;
17947;SDS011;9099;47.958;11.366;2024-03-17T08:31:55;1.20;;;1.17;;
17947;SDS011;9099;47.958;11.366;2024-03-17T08:34:22;1.63;;;1.50;;
17947;SDS011;9099;47.958;11.366;2024-03-17T08:36:49;1.20;;;1.10;;
17947;SDS011;9099;47.958;11.366;2024-03-17T08:39:16;1.50;;;1.20;;
17947;SDS011;9099;47.958;11.366;2024-03-17T08:41:44;1.10;;;1.10;;
17947;SDS011;9099;47.958;11.366;2024-03-17T08:44:11;1.33;;;1.23;;
17947;SDS011;9099;47.958;11.366;2024-03-17T08:46:37;1.27;;;1.17;;
17947;SDS011;9099;47.958;11.366;2024-03-17T08:49:04;0.90;;;0.90;;
17947;SDS011;9099;47.958;11.366;2024-03-17T08:51:31;1.15;;;1.10;;
17947;SDS011;9099;47.958;11.366;2024-03-17T08:53:58;1.30;;;1.30;;
17947;SDS011;9099;47.958;11.366;2024-03-17T08:56:25;1.75;;;1.30;;
17947;SDS011;9099;47.958;11.366;2024-03-17T08:58:53;1.38;;;1.30;;
17947;SDS011;9099;47.958;11.366;2024-03-17T09:01:20;1.00;;;1.00;;
17947;SDS011;9099;47.958;11.366;2024-03-17T09:03:47;1.40;;;1.20;;
17947;SDS011;9099;47.958;11.366;2024-03-17T09:06:17;1.20;;;1.10;;
17947;SDS011;9099;47.958;11.366;2024-03-17T09:08:46;1.10;;;1.00;;
17947;SDS011;9099;47.958;11.366;2024-03-17T09:11:13;0.82;;;0.82;;
17947;SDS011;9099;47.958;11.366;2024-03-17T09:13:40;1.92;;;1.10;;
17947;SDS011;9099;47.958;11.366;2024-03-17T09:16:08;1.58;;;0.85;;
17947;SDS011;9099;47.958;11.366;2024-03-17T09:18:38;1.75;;;0.85;;
17947;SDS011;9099;47.958;11.366;2024-03-17T09:21:06;1.45;;;1.10;;
17947;SDS011;9099;47.958;11.366;2024-03-17T09:23:35;1.80;;;1.25;;
17947;SDS011;9099;47.958;11.366;2024-03-17T09:26:03;1.42;;;1.00;;
17947;SDS011;9099;47.958;11.366;2024-03-17T09:28:33;1.45;;;1.00;;
17947;SDS011;9099;47.958;11.366;2024-03-17T09:31:00;1.33;;;1.15;;
17947;SDS011;9099;47.958;11.366;2024-03-17T09:33:29;1.17;;;1.00;;
17947;SDS011;9099;47.958;11.366;2024-03-17T09:35:56;1.20;;;1.02;;
17947;SDS011;9099;47.958;11.366;2024-03-17T09:38:25;1.08;;;0.93;;
17947;SDS011;9099;47.958;11.366;2024-03-17T09:40:53;1.88;;;1.10;;
17947;SDS011;9099;47.958;11.366;2024-03-17T09:43:23;1.50;;;0.90;;
17947;SDS011;9099;47.958;11.366;2024-03-17T09:45:51;1.00;;;1.00;;
17947;SDS011;9099;47.958;11.366;2024-03-17T09:48:21;1.08;;;0.90;;
17947;SDS011;9099;47.958;11.366;2024-03-17T09:50:51;1.75;;;0.93;;
17947;SDS011;9099;47.958;11.366;2024-03-17T09:53:21;1.58;;;1.40;;
17947;SDS011;9099;47.958;11.366;2024-03-17T09:55:50;1.25;;;0.80;;
17947;SDS011;9099;47.958;11.366;2024-03-17T09:58:17;1.63;;;1.10;;
17947;SDS011;9099;47.958;11.366;2024-03-17T10:00:44;3.05;;;1.10;;
17947;SDS011;9099;47.958;11.366;2024-03-17T10:03:11;1.27;;;0.90;;
17947;SDS011;9099;47.958;11.366;2024-03-17T10:05:38;1.00;;;0.82;;
17947;SDS011;9099;47.958;11.366;2024-03-17T10:08:07;1.45;;;1.10;;
17947;SDS011;9099;47.958;11.366;2024-03-17T10:10:52;1.48;;;1.05;;
17947;SDS011;9099;47.958;11.366;2024-03-17T10:13:19;1.45;;;1.00;;
17947;SDS011;9099;47.958;11.366;2024-03-17T10:15:47;1.13;;;1.00;;
17947;SDS011;9099;47.958;11.366;2024-03-17T10:18:19;1.05;;;0.80;;
17947;SDS011;9099;47.958;11.366;2024-03-17T10:20:48;1.25;;;0.88;;
17947;SDS011;9099;47.958;11.366;2024-03-17T10:23:21;1.92;;;1.08;;
17947;SDS011;9099;47.958;11.366;2024-03-17T10:25:48;1.20;;;0.90;;
17947;SDS011;9099;47.958;11.366;2024-03-17T10:28:16;2.38;;;0.95;;
17947;SDS011;9099;47.958;11.366;2024-03-17T10:30:56;1.30;;;0.85;;
17947;SDS011;9099;47.958;11.366;2024-03-17T10:33:24;1.17;;;0.85;;
17947;SDS011;9099;47.958;11.366;2024-03-17T10:35:57;0.95;;;0.90;;
17947;SDS011;9099;47.958;11.366;2024-03-17T10:38:27;1.13;;;0.80;;
17947;SDS011;9099;47.958;11.366;2024-03-17T10:40:54;1.65;;;1.10;;
17947;SDS011;9099;47.958;11.366;2024-03-17T10:43:21;1.55;;;0.93;;
17947;SDS011;9099;47.958;11.366;2024-03-17T10:45:51;1.20;;;0.98;;
17947;SDS011;9099;47.958;11.366;2024-03-17T10:48:19;1.48;;;1.00;;
17947;SDS011;9099;47.958;11.366;2024-03-17T10:50:47;1.05;;;0.82;;
17947;SDS011;9099;47.958;11.366;2024-03-17T10:53:19;0.93;;;0.80;;
17947;SDS011;9099;47.958;11.366;2024-03-17T10:55:54;1.30;;;0.90;;
17947;SDS011;9099;47.958;11.366;2024-03-17T10:58:33;1.88;;;1.33;;
17947;SDS011;9099;47.958;11.366;2024-03-17T11:01:01;1.02;;;0.90;;
17947;SDS011;9099;47.958;11.366;2024-03-17T11:03:30;1.88;;;0.88;;
17947;SDS011;9099;47.958;11.366;2024-03-17T11:05:58;1.58;;;1.00;;
17947;SDS011;9099;47.958;11.366;2024-03-17T11:08:28;1.30;;;1.00;;
17947;SDS011;9099;47.958;11.366;2024-03-17T11:10:59;1.48;;;0.80;;
17947;SDS011;9099;47.958;11.366;2024-03-17T11:13:26;1.17;;;0.80;;
17947;SDS011;9099;47.958;11.366;2024-03-17T11:15:54;1.40;;;0.90;;
17947;SDS011;9099;47.958;11.366;2024-03-17T11:18:31;1.02;;;0.90;;
17947;SDS011;9099;47.958;11.366;2024-03-17T11:20:59;1.05;;;0.90;;
17947;SDS011;9099;47.958;11.366;2024-03-17T11:23:33;1.48;;;0.60;;
17947;SDS011;9099;47.958;11.366;2024-03-17T11:26:03;0.93;;;0.93;;
17947;SDS011;9099;47.958;11.366;2024-03-17T11:28:44;1.10;;;0.70;;
17947;SDS011;9099;47.958;11.366;2024-03-17T11:34:02;2.38;;;2.17;;
17947;SDS011;9099;47.958;11.366;2024-03-17T11:36:33;1.70;;;0.90;;
17947;SDS011;9099;47.958;11.366;2024-03-17T11:39:02;1.50;;;1.10;;
17947;SDS011;9099;47.958;11.366;2024-03-17T11:41:35;1.50;;;1.00;;
17947;SDS011;9099;47.958;11.366;2024-03-17T11:46:58;2.08;;;0.80;;
17947;SDS011;9099;47.958;11.366;2024-03-17T11:49:26;1.80;;;0.75;;
17947;SDS011;9099;47.958;11.366;2024-03-17T11:51:55;1.77;;;0.95;;
17947;SDS011;9099;47.958;11.366;2024-03-17T11:54:22;2.33;;;0.73;;
17947;SDS011;9099;47.958;11.366;2024-03-17T11:56:54;2.25;;;1.05;;
17947;SDS011;9099;47.958;11.366;2024-03-17T11:59:22;0.93;;;0.70;;
17947;SDS011;9099;47.958;11.366;2024-03-17T12:01:49;1.70;;;0.88;;
17947;SDS011;9099;47.958;11.366;2024-03-17T12:04:16;2.20;;;0.70;;
17947;SDS011;9099;47.958;11.366;2024-03-17T12:06:44;1.13;;;0.90;;
17947;SDS011;9099;47.958;11.366;2024-03-17T12:09:11;1.42;;;0.90;;
17947;SDS011;9099;47.958;11.366;2024-03-17T12:11:45;2.33;;;1.00;;
17947;SDS011;9099;47.958;11.366;2024-03-17T12:14:19;1.02;;;0.75;;
17947;SDS011;9099;47.958;11.366;2024-03-17T12:16:46;0.63;;;0.63;;
17947;SDS011;9099;47.958;11.366;2024-03-17T12:19:13;1.27;;;0.77;;
17947;SDS011;9099;47.958;11.366;2024-03-17T12:21:43;3.28;;;2.63;;
17947;SDS011;9099;47.958;11.366;2024-03-17T12:24:11;2.33;;;1.13;;
17947;SDS011;9099;47.958;11.366;2024-03-17T12:26:42;1.33;;;0.63;;
17947;SDS011;9099;47.958;11.366;2024-03-17T12:29:25;0.90;;;0.70;;
17947;SDS011;9099;47.958;11.366;2024-03-17T12:31:55;1.00;;;0.73;;
17947;SDS011;9099;47.958;11.366;2024-03-17T12:34:22;1.40;;;0.80;;
17947;SDS011;9099;47.958;11.366;2024-03-17T12:36:54;1.90;;;0.70;;
17947;SDS011;9099;47.958;11.366;2024-03-17T12:39:22;1.52;;;0.57;;
17947;SDS011;9099;47.958;11.366;2024-03-17T12:42:06;2.75;;;0.98;;
17947;SDS011;9099;47.958;11.366;2024-03-17T12:44:36;1.58;;;1.00;;
17947;SDS011;9099;47.958;11.366;2024-03-17T12:47:07;3.13;;;0.82;;
17947;SDS011;9099;47.958;11.366;2024-03-17T12:49:34;1.70;;;0.70;;
17947;SDS011;9099;47.958;11.366;2024-03-17T12:52:01;1.00;;;0.70;;
17947;SDS011;9099;47.958;11.366;2024-03-17T12:54:28;0.95;;;0.70;;
17947;SDS011;9099;47.958;11.366;2024-03-17T12:57:04;1.60;;;0.80;;
17947;SDS011;9099;47.958;11.366;2024-03-17T12:59:50;1.55;;;1.00;;
17947;SDS011;9099;47.958;11.366;2024-03-17T13:02:40;1.83;;;1.00;;
17947;SDS011;9099;47.958;11.366;2024-03-17T13:05:10;1.33;;;0.90;;
17947;SDS011;9099;47.958;11.366;2024-03-17T13:07:41;2.15;;;0.68;;
17947;SDS011;9099;47.958;11.366;2024-03-17T13:10:11;1.60;;;0.65;;
17947;SDS011;9099;47.958;11.366;2024-03-17T13:12:39;1.33;;;0.73;;
17947;SDS011;9099;47.958;11.366;2024-03-17T13:15:09;1.98;;;0.90;;
17947;SDS011;9099;47.958;11.366;2024-03-17T13:17:38;1.45;;;0.70;;
17947;SDS011;9099;47.958;11.366;2024-03-17T13:20:06;1.70;;;0.80;;
17947;SDS011;9099;47.958;11.366;2024-03-17T13:22:36;1.90;;;1.00;;
17947;SDS011;9099;47.958;11.366;2024-03-17T13:25:05;1.58;;;0.75;;
17947;SDS011;9099;47.958;11.366;2024-03-17T13:27:35;2.65;;;0.90;;
17947;SDS011;9099;47.958;11.366;2024-03-17T13:30:02;1.17;;;1.00;;
17947;SDS011;9099;47.958;11.366;2024-03-17T13:32:32;1.23;;;0.80;;
17947;SDS011;9099;47.958;11.366;2024-03-17T13:34:59;1.83;;;0.70;;
17947;SDS011;9099;47.958;11.366;2024-03-17T13:37:26;1.00;;;0.70;;
17947;SDS011;9099;47.958;11.366;2024-03-17T13:39:53;1.58;;;0.65;;
17947;SDS011;9099;47.958;11.366;2024-03-17T13:42:20;1.38;;;0.80;;
17947;SDS011;9099;47.958;11.366;2024-03-17T13:44:47;1.55;;;0.80;;
17947;SDS011;9099;47.958;11.366;2024-03-17T13:47:14;2.47;;;0.90;;
17947;SDS011;9099;47.958;11.366;2024-03-17T13:49:43;1.42;;;0.70;;
17947;SDS011;9099;47.958;11.366;2024-03-17T13:52:11;1.08;;;0.70;;
17947;SDS011;9099;47.958;11.366;2024-03-17T13:54:38;1.05;;;0.60;;
17947;SDS011;9099;47.958;11.366;2024-03-17T13:57:05;1.65;;;0.68;;
17947;SDS011;9099;47.958;11.366;2024-03-17T13:59:32;0.90;;;0.65;;
17947;SDS011;9099;47.958;11.366;2024-03-17T14:02:00;1.35;;;0.70;;
17947;SDS011;9099;47.958;11.366;2024-03-17T14:04:27;0.52;;;0.50;;
17947;SDS011;9099;47.958;11.366;2024-03-17T14:06:56;1.35;;;0.68;;
17947;SDS011;9099;47.958;11.366;2024-03-17T14:09:22;2.05;;;1.20;;
17947;SDS011;9099;47.958;11.366;2024-03-17T14:11:49;1.60;;;0.90;;
17947;SDS011;9099;47.958;11.366;2024-03-17T14:14:16;1.45;;;0.95;;
17947;SDS011;9099;47.958;11.366;2024-03-17T14:16:43;1.73;;;0.63;;
17947;SDS011;9099;47.958;11.366;2024-03-17T14:19:10;1.27;;;0.75;;
17947;SDS011;9099;47.958;11.366;2024-03-17T14:21:37;1.73;;;0.90;;
17947;SDS011;9099;47.958;11.366;2024-03-17T14:24:05;2.03;;;0.80;;
17947;SDS011;9099;47.958;11.366;2024-03-17T14:26:34;1.33;;;0.85;;
17947;SDS011;9099;47.958;11.366;2024-03-17T14:29:01;1.10;;;0.80;;
17947;SDS011;9099;47.958;11.366;2024-03-17T14:31:30;0.88;;;0.77;;
17947;SDS011;9099;47.958;11.366;2024-03-17T14:33:58;0.80;;;0.60;;
17947;SDS011;9099;47.958;11.366;2024-03-17T14:36:25;0.70;;;0.70;;
17947;SDS011;9099;47.958;11.366;2024-03-17T14:38:53;1.17;;;0.80;;
17947;SDS011;9099;47.958;11.366;2024-03-17T14:41:21;1.73;;;0.70;;
17947;SDS011;9099;47.958;11.366;2024-03-17T14:43:48;1.90;;;0.90;;
17947;SDS011;9099;47.958;11.366;2024-03-17T14:46:16;1.40;;;0.73;;
17947;SDS011;9099;47.958;11.366;2024-03-17T14:48:43;1.20;;;1.00;;
17947;SDS011;9099;47.958;11.366;2024-03-17T14:51:10;1.90;;;1.00;;
17947;SDS011;9099;47.958;11.366;2024-03-17T14:53:37;1.02;;;0.73;;
17947;SDS011;9099;47.958;11.366;2024-03-17T14:56:07;1.48;;;0.82;;
17947;SDS011;9099;47.958;11.366;2024-03-17T14:58:36;1.02;;;0.70;;